Time;durP1;ratioP1;P1;durP2;ratioP2;P2;SDS_P1;SDS_P2;PMS_P1;PMS_P2;Temp;Humidity;BMP_temperature;BMP_pressure;BME280_temperature;BME280_humidity;BME280_pressure;Samples;Min_cycle;Max_cycle;Signal;HPM_P1;HPM_P2
2023/12/27 07:41:37;;;;;;;6.47;3.08;;;;;;;;;;6183407;23;20005;-84
2023/12/27 08:40:22;;;;;;;12.65;3.42;;;;;;;;;;6024994;23;20500;-82
2023/12/27 08:49:31;;;;;;;9.20;2.90;;;;;;;;;;6065501;23;20014;-83
2023/12/27 08:52:00;;;;;;;13.45;3.40;;;;;;;;;;6065867;23;20030;-83
2023/12/27 08:54:29;;;;;;;7.55;2.95;;;;;;;;;;6066478;23;20026;-82
2023/12/27 08:57:07;;;;;;;6.82;2.95;;;;;;;;;;6066207;23;20027;-84
2023/12/27 09:48:25;;;;;;;8.90;3.15;;;;;;;;;;6033042;23;20046;-84
2023/12/27 09:52:04;;;;;;;;;;;;;;;;;;;;;
2023/12/27 09:54:57;;;;;;;;;;;;;;;;;;6032758;23;20178;-86
2023/12/27 09:57:25;;;;;;;8.15;2.90;;;;;;;;;;6008200;23;19922;-85
2023/12/27 10:00:12;;;;;;;13.07;3.58;;;;;;;;;;6034610;23;20027;-85
2023/12/27 10:03:16;;;;;;;10.10;3.72;;;;;;;;;;6036425;23;20098;-84
2023/12/27 10:05:58;;;;;;;12.68;4.88;;;;;;;;;;5956198;24;20497;-85
2023/12/27 10:08:27;;;;;;;8.52;4.03;;;;;;;;;;6039871;23;20102;-87
2023/12/27 10:11:16;;;;;;;11.32;4.13;;;;;;;;;;6117885;23;20017;-86
2023/12/27 10:13:56;;;;;;;6.85;3.95;;;;;;;;;;6157649;23;20454;-86
2023/12/27 10:16:22;;;;;;;9.63;4.07;;;;;;;;;;6133191;23;20120;-86
2023/12/27 10:19:33;;;;;;;14.32;4.30;;;;;;;;;;6133942;23;20091;-86
2023/12/27 10:22:06;;;;;;;11.63;4.00;;;;;;;;;;6135269;23;20458;-88
2023/12/27 10:24:34;;;;;;;13.05;4.60;;;;;;;;;;6135958;23;20049;-86
2023/12/27 10:27:14;;;;;;;10.88;5.10;;;;;;;;;;6136497;23;20102;-84
2023/12/27 10:30:07;;;;;;;14.35;4.75;;;;;;;;;;6135345;23;20052;-84
2023/12/27 10:32:57;;;;;;;9.15;4.57;;;;;;;;;;6086624;23;20021;-84
2023/12/27 10:39:09;;;;;;;18.70;5.85;;;;;;;;;;6156479;23;20076;-85
2023/12/27 10:42:07;;;;;;;9.27;4.75;;;;;;;;;;6135681;23;20386;-85
2023/12/27 10:44:49;;;;;;;;;;;;;;;;;;;;;
2023/12/27 10:47:30;;;;;;;11.73;5.15;;;;;;;;;;6159106;23;20017;-84
2023/12/27 10:50:23;;;;;;;;;;;;;;;;;;;;;
2023/12/27 10:53:11;;;;;;;11.95;5.35;;;;;;;;;;6158121;23;20052;-85
2023/12/27 10:55:54;;;;;;;14.25;5.07;;;;;;;;;;6134788;23;20031;-85
2023/12/27 10:58:45;;;;;;;10.55;5.38;;;;;;;;;;6131928;23;20017;-85
2023/12/27 11:04:43;;;;;;;16.63;6.55;;;;;;;;;;6116736;23;20022;-85
2023/12/27 11:07:21;;;;;;;13.63;5.88;;;;;;;;;;6075260;23;20483;-86
2023/12/27 11:10:25;;;;;;;12.27;5.32;;;;;;;;;;6077053;23;20022;-85
2023/12/27 11:13:18;;;;;;;15.05;5.82;;;;;;;;;;6075304;23;20026;-86
2023/12/27 11:15:57;;;;;;;17.73;6.25;;;;;;;;;;6055779;23;20018;-86
2023/12/27 11:18:28;;;;;;;16.45;7.28;;;;;;;;;;6076489;23;20076;-85
2023/12/27 11:20:56;;;;;;;13.93;5.80;;;;;;;;;;6077870;23;20057;-87
2023/12/27 11:23:23;;;;;;;16.63;6.75;;;;;;;;;;6078042;23;20486;-86
2023/12/27 11:25:54;;;;;;;12.50;6.53;;;;;;;;;;6077105;23;20390;-86
2023/12/27 11:28:20;;;;;;;15.38;6.05;;;;;;;;;;6077725;23;20049;-86
2023/12/27 11:30:47;;;;;;;12.88;5.10;;;;;;;;;;6077017;23;20049;-86
2023/12/27 11:33:26;;;;;;;11.95;6.05;;;;;;;;;;6128514;23;20021;-85
2023/12/27 11:35:52;;;;;;;16.60;6.38;;;;;;;;;;6137234;23;20029;-86
2023/12/27 11:38:21;;;;;;;13.20;6.93;;;;;;;;;;6188612;23;20084;-85
2023/12/27 11:40:47;;;;;;;13.38;6.30;;;;;;;;;;6135973;23;20021;-85
2023/12/27 11:43:24;;;;;;;15.95;6.97;;;;;;;;;;6137058;23;20492;-83
2023/12/27 11:45:55;;;;;;;;;;;;;;;;;;6162456;23;20077;-84
2023/12/27 11:48:27;;;;;;;15.70;7.35;;;;;;;;;;6136972;23;20262;-85
2023/12/27 11:50:56;;;;;;;16.25;6.75;;;;;;;;;;6136746;23;20025;-86
2023/12/27 11:53:24;;;;;;;16.42;7.05;;;;;;;;;;6136428;23;20053;-86
2023/12/27 11:55:51;;;;;;;15.32;7.78;;;;;;;;;;6136254;23;20018;-86
2023/12/27 11:58:31;;;;;;;15.20;6.93;;;;;;;;;;6136088;23;20100;-86
2023/12/27 12:00:57;;;;;;;19.23;7.85;;;;;;;;;;6135866;23;20179;-86
2023/12/27 12:03:33;;;;;;;13.13;7.40;;;;;;;;;;6135954;23;20017;-86
2023/12/27 12:06:02;;;;;;;16.50;8.15;;;;;;;;;;6136032;23;20053;-85
2023/12/27 12:08:38;;;;;;;36.75;15.82;;;;;;;;;;6160081;23;20129;-86
2023/12/27 12:11:10;;;;;;;34.17;17.75;;;;;;;;;;6135744;23;20028;-85
2023/12/27 12:13:38;;;;;;;44.28;23.65;;;;;;;;;;6136466;23;20025;-86
2023/12/27 12:16:05;;;;;;;21.45;11.30;;;;;;;;;;6159678;23;20383;-85
2023/12/27 12:18:32;;;;;;;24.58;13.75;;;;;;;;;;6187105;23;20057;-85
2023/12/27 12:20:58;;;;;;;23.02;11.75;;;;;;;;;;6160514;23;20426;-85
2023/12/27 12:23:25;;;;;;;19.65;10.63;;;;;;;;;;6135879;23;20017;-85
2023/12/27 12:25:51;;;;;;;41.38;22.63;;;;;;;;;;6135194;23;20103;-85
2023/12/27 12:28:17;;;;;;;23.50;15.05;;;;;;;;;;6134543;23;20080;-84
2023/12/27 12:30:46;;;;;;;19.67;10.88;;;;;;;;;;6134175;23;20026;-86
2023/12/27 12:33:12;;;;;;;20.63;10.45;;;;;;;;;;6158656;23;20023;-85
2023/12/27 12:35:40;;;;;;;18.40;10.60;;;;;;;;;;6134389;23;20168;-86
2023/12/27 12:38:06;;;;;;;19.75;11.82;;;;;;;;;;6135027;23;20044;-84
2023/12/27 12:40:33;;;;;;;14.95;9.80;;;;;;;;;;6135658;23;20152;-86
2023/12/27 12:42:59;;;;;;;21.55;10.25;;;;;;;;;;6134411;23;20099;-85
2023/12/27 12:45:25;;;;;;;20.83;11.07;;;;;;;;;;6135288;23;20025;-84
2023/12/27 12:47:51;;;;;;;21.83;10.60;;;;;;;;;;6134579;23;20393;-85
2023/12/27 12:50:18;;;;;;;16.40;10.68;;;;;;;;;;6134467;23;20087;-85
2023/12/27 12:52:45;;;;;;;21.60;11.38;;;;;;;;;;6134755;23;20052;-85
2023/12/27 12:55:11;;;;;;;16.08;8.70;;;;;;;;;;6133924;23;20362;-85
2023/12/27 12:57:38;;;;;;;17.92;10.77;;;;;;;;;;6158969;23;20048;-85
2023/12/27 13:00:08;;;;;;;18.23;11.02;;;;;;;;;;6135098;23;20513;-85
2023/12/27 13:02:34;;;;;;;18.75;10.88;;;;;;;;;;6158304;23;20021;-86
2023/12/27 13:05:01;;;;;;;20.58;11.85;;;;;;;;;;6134462;23;20322;-86
2023/12/27 13:07:28;;;;;;;20.17;12.23;;;;;;;;;;6134370;23;20023;-86
2023/12/27 13:09:59;;;;;;;23.02;11.48;;;;;;;;;;6134132;23;20025;-88
2023/12/27 13:12:27;;;;;;;24.50;12.45;;;;;;;;;;6134326;23;20048;-87
2023/12/27 13:14:53;;;;;;;18.00;10.70;;;;;;;;;;6134333;23;20091;-86
2023/12/27 13:17:20;;;;;;;21.92;12.27;;;;;;;;;;6134241;23;20067;-87
2023/12/27 13:19:46;;;;;;;24.17;14.13;;;;;;;;;;6134317;23;20021;-87
2023/12/27 13:22:12;;;;;;;17.55;11.98;;;;;;;;;;6134410;23;20350;-86
2023/12/27 13:24:39;;;;;;;18.27;11.80;;;;;;;;;;6134448;23;20044;-89
2023/12/27 13:27:05;;;;;;;21.70;13.65;;;;;;;;;;6134650;23;20021;-89
2023/12/27 13:29:31;;;;;;;23.25;13.48;;;;;;;;;;6134385;23;20032;-87
2023/12/27 13:31:57;;;;;;;20.17;13.23;;;;;;;;;;6158862;23;20043;-88
2023/12/27 13:34:23;;;;;;;21.85;12.82;;;;;;;;;;6134440;23;20101;-88
2023/12/27 13:36:50;;;;;;;22.45;14.73;;;;;;;;;;6134011;23;20378;-87
2023/12/27 13:39:17;;;;;;;19.35;13.30;;;;;;;;;;6158519;23;20055;-88
2023/12/27 13:41:52;;;;;;;22.25;13.45;;;;;;;;;;6134219;23;20067;-89
2023/12/27 13:44:18;;;;;;;23.20;14.95;;;;;;;;;;6134519;23;20056;-87
2023/12/27 13:46:44;;;;;;;24.25;15.52;;;;;;;;;;6159073;23;20017;-88
2023/12/27 13:49:10;;;;;;;21.05;13.10;;;;;;;;;;6134541;23;20033;-87
2023/12/27 13:51:37;;;;;;;25.55;14.75;;;;;;;;;;6135073;23;20323;-87
2023/12/27 13:54:03;;;;;;;26.55;15.65;;;;;;;;;;6134438;23;20025;-87
2023/12/27 13:56:29;;;;;;;25.98;15.68;;;;;;;;;;6135928;23;20040;-87
2023/12/27 13:58:55;;;;;;;24.67;15.27;;;;;;;;;;6136416;23;20020;-85
2023/12/27 14:01:22;;;;;;;27.83;15.10;;;;;;;;;;6135785;23;20021;-87
2023/12/27 14:03:48;;;;;;;26.05;16.58;;;;;;;;;;6136171;23;20021;-87
2023/12/27 14:06:14;;;;;;;25.58;16.20;;;;;;;;;;6136600;23;20104;-88
2023/12/27 14:08:41;;;;;;;27.52;16.25;;;;;;;;;;6135970;23;20036;-88
2023/12/27 14:11:07;;;;;;;29.92;16.85;;;;;;;;;;6135619;23;20063;-86
2023/12/27 14:13:33;;;;;;;29.27;17.00;;;;;;;;;;6160479;23;20488;-88
2023/12/27 14:16:00;;;;;;;29.92;18.25;;;;;;;;;;6135363;23;20470;-88
2023/12/27 14:18:29;;;;;;;31.27;17.38;;;;;;;;;;6136594;23;20025;-88
2023/12/27 14:20:55;;;;;;;36.88;19.23;;;;;;;;;;6135785;23;20021;-88
2023/12/27 14:23:21;;;;;;;36.10;20.25;;;;;;;;;;6136180;23;20071;-87
2023/12/27 14:25:47;;;;;;;32.05;19.30;;;;;;;;;;6135744;23;20025;-87
2023/12/27 14:28:13;;;;;;;32.78;19.88;;;;;;;;;;6135879;23;20025;-87
2023/12/27 14:30:41;;;;;;;35.55;20.13;;;;;;;;;;6135780;23;20029;-88
2023/12/27 14:33:10;;;;;;;31.40;19.42;;;;;;;;;;6136364;23;20021;-87
2023/12/27 14:35:37;;;;;;;34.53;19.40;;;;;;;;;;6135164;23;20370;-87
2023/12/27 14:38:05;;;;;;;37.55;19.33;;;;;;;;;;6135637;23;20021;-87
2023/12/27 14:40:33;;;;;;;33.90;18.58;;;;;;;;;;6135331;23;20025;-87
2023/12/27 14:42:59;;;;;;;31.48;19.10;;;;;;;;;;6135643;23;20021;-88
2023/12/27 14:45:46;;;;;;;39.08;22.38;;;;;;;;;;6135364;23;20017;-88
2023/12/27 14:48:15;;;;;;;39.38;19.80;;;;;;;;;;6135463;23;20166;-88
2023/12/27 14:50:41;;;;;;;32.95;19.10;;;;;;;;;;6134853;23;20203;-87
2023/12/27 14:53:11;;;;;;;32.97;20.05;;;;;;;;;;6136679;23;20023;-88
2023/12/27 14:55:37;;;;;;;33.92;19.90;;;;;;;;;;6136006;23;20017;-87
2023/12/27 14:58:04;;;;;;;38.00;22.58;;;;;;;;;;6136081;23;20021;-88
2023/12/27 15:00:30;;;;;;;36.03;21.10;;;;;;;;;;6135881;23;20032;-87
2023/12/27 15:02:56;;;;;;;33.58;18.42;;;;;;;;;;6136036;23;20032;-88
2023/12/27 15:05:26;;;;;;;35.80;19.35;;;;;;;;;;6135784;23;20032;-87
2023/12/27 15:07:52;;;;;;;39.45;19.83;;;;;;;;;;6135504;23;20163;-88
2023/12/27 15:10:20;;;;;;;31.48;19.25;;;;;;;;;;6136193;23;20120;-87
2023/12/27 15:12:47;;;;;;;37.88;18.42;;;;;;;;;;6135870;23;20021;-87
2023/12/27 15:15:46;;;;;;;32.88;18.92;;;;;;;;;;6136005;23;20048;-87
2023/12/27 15:18:12;;;;;;;30.60;17.92;;;;;;;;;;6134953;23;20099;-87
2023/12/27 15:20:41;;;;;;;27.33;17.20;;;;;;;;;;6135837;23;20316;-88
2023/12/27 15:23:08;;;;;;;26.80;16.33;;;;;;;;;;6136118;23;20021;-87
2023/12/27 15:25:34;;;;;;;30.50;16.25;;;;;;;;;;6135324;23;20123;-88
2023/12/27 15:28:04;;;;;;;27.98;15.88;;;;;;;;;;6133811;23;20027;-88
2023/12/27 15:30:30;;;;;;;24.67;15.52;;;;;;;;;;6130880;23;20029;-87
2023/12/27 15:32:56;;;;;;;25.08;15.98;;;;;;;;;;6130836;23;20021;-87
2023/12/27 15:35:25;;;;;;;26.65;17.83;;;;;;;;;;6130339;23;20128;-87
2023/12/27 15:37:56;;;;;;;29.80;16.20;;;;;;;;;;6130536;23;20021;-88
2023/12/27 15:40:25;;;;;;;23.48;15.75;;;;;;;;;;6132300;23;20017;-88
2023/12/27 15:43:17;;;;;;;22.63;13.95;;;;;;;;;;6135392;23;20021;-88
2023/12/27 15:45:45;;;;;;;21.35;13.27;;;;;;;;;;6135165;23;20040;-88
2023/12/27 15:48:12;;;;;;;25.08;13.27;;;;;;;;;;6135410;23;20021;-87
2023/12/27 15:50:38;;;;;;;19.13;12.77;;;;;;;;;;6136112;23;20059;-87
2023/12/27 15:53:04;;;;;;;21.55;13.05;;;;;;;;;;6135376;23;20028;-87
2023/12/27 15:55:30;;;;;;;19.80;12.63;;;;;;;;;;6133391;23;20057;-87
2023/12/27 15:57:56;;;;;;;21.63;12.85;;;;;;;;;;6133432;23;20067;-87
2023/12/27 16:00:23;;;;;;;21.40;13.38;;;;;;;;;;6133149;23;20144;-87
2023/12/27 16:02:49;;;;;;;20.20;13.20;;;;;;;;;;6134431;23;20021;-87
2023/12/27 16:05:15;;;;;;;19.55;12.93;;;;;;;;;;6134522;23;20118;-87
2023/12/27 16:07:51;;;;;;;19.40;12.95;;;;;;;;;;6134531;23;20382;-87
2023/12/27 16:10:17;;;;;;;23.00;13.02;;;;;;;;;;6134797;23;20096;-87
2023/12/27 16:12:49;;;;;;;23.08;12.82;;;;;;;;;;6135046;23;20031;-87
2023/12/27 16:15:15;;;;;;;18.05;12.38;;;;;;;;;;6134531;23;20028;-87
2023/12/27 16:17:41;;;;;;;19.42;12.05;;;;;;;;;;6134905;23;20350;-87
2023/12/27 16:20:32;;;;;;;21.20;12.15;;;;;;;;;;6159897;23;20017;-87
2023/12/27 16:22:58;;;;;;;22.77;12.02;;;;;;;;;;6134829;23;20024;-87
2023/12/27 16:25:27;;;;;;;19.83;11.65;;;;;;;;;;6134269;23;20021;-87
2023/12/27 16:27:57;;;;;;;19.63;10.75;;;;;;;;;;6134635;23;20119;-87
2023/12/27 16:30:23;;;;;;;16.60;10.48;;;;;;;;;;6134496;23;20076;-87
2023/12/27 16:32:50;;;;;;;19.48;11.23;;;;;;;;;;6134465;23;20075;-87
2023/12/27 16:35:17;;;;;;;18.42;11.85;;;;;;;;;;6133420;23;20017;-87
2023/12/27 16:37:51;;;;;;;21.70;13.20;;;;;;;;;;6134382;23;20116;-87
2023/12/27 16:40:17;;;;;;;21.40;12.10;;;;;;;;;;6134439;23;20029;-87
2023/12/27 16:42:48;;;;;;;21.35;14.40;;;;;;;;;;6134274;23;20021;-87
2023/12/27 16:45:44;;;;;;;22.95;10.27;;;;;;;;;;6134991;23;20590;-88
2023/12/27 16:48:15;;;;;;;17.10;11.65;;;;;;;;;;6133142;23;20029;-87
2023/12/27 16:50:46;;;;;;;14.85;8.95;;;;;;;;;;6134296;23;20052;-87
2023/12/27 16:53:19;;;;;;;13.77;9.05;;;;;;;;;;6134563;23;20033;-86
2023/12/27 16:55:49;;;;;;;13.93;8.63;;;;;;;;;;6134583;23;20028;-87
2023/12/27 16:58:23;;;;;;;15.10;9.35;;;;;;;;;;6134198;23;20024;-87
2023/12/27 17:00:49;;;;;;;16.77;9.70;;;;;;;;;;6134216;23;20025;-87
2023/12/27 17:03:16;;;;;;;18.55;9.60;;;;;;;;;;6134172;23;20096;-88
2023/12/27 17:05:43;;;;;;;13.80;8.45;;;;;;;;;;6134312;23;20021;-87
2023/12/27 17:08:09;;;;;;;15.32;8.55;;;;;;;;;;6134464;23;20407;-86
2023/12/27 17:10:36;;;;;;;15.05;8.23;;;;;;;;;;6135019;23;20017;-88
2023/12/27 17:13:03;;;;;;;13.60;8.35;;;;;;;;;;6134901;23;20021;-87
2023/12/27 17:15:34;;;;;;;14.13;8.68;;;;;;;;;;6134140;23;20020;-87
2023/12/27 17:18:02;;;;;;;16.35;8.20;;;;;;;;;;6134866;23;20021;-87
2023/12/27 17:20:28;;;;;;;16.02;8.18;;;;;;;;;;6134453;23;20052;-87
2023/12/27 17:22:54;;;;;;;17.00;8.20;;;;;;;;;;6134595;23;20071;-87
2023/12/27 17:25:21;;;;;;;13.82;7.95;;;;;;;;;;6134061;23;20124;-86
2023/12/27 17:27:47;;;;;;;14.10;7.03;;;;;;;;;;6134446;23;20043;-87
2023/12/27 17:30:14;;;;;;;11.18;7.32;;;;;;;;;;6133930;23;20374;-87
2023/12/27 17:32:41;;;;;;;12.30;7.85;;;;;;;;;;6134233;23;20123;-86
2023/12/27 17:35:08;;;;;;;13.55;8.02;;;;;;;;;;6133876;23;20096;-86
2023/12/27 17:37:38;;;;;;;11.15;7.10;;;;;;;;;;6133829;23;20080;-86
2023/12/27 17:40:07;;;;;;;17.13;7.88;;;;;;;;;;6134537;23;20052;-88
2023/12/27 17:42:34;;;;;;;15.45;7.95;;;;;;;;;;6159470;23;20029;-87
2023/12/27 17:45:00;;;;;;;11.10;7.25;;;;;;;;;;6134738;23;20017;-87
2023/12/27 17:47:26;;;;;;;14.65;7.95;;;;;;;;;;6136181;23;20446;-87
2023/12/27 17:49:54;;;;;;;12.35;7.65;;;;;;;;;;6134534;23;20017;-88
2023/12/27 17:52:27;;;;;;;11.43;7.25;;;;;;;;;;6133729;23;20031;-87
2023/12/27 17:54:56;;;;;;;11.10;7.50;;;;;;;;;;6131922;23;20414;-86
2023/12/27 17:57:22;;;;;;;11.77;7.75;;;;;;;;;;6133935;23;20021;-86
2023/12/27 17:59:49;;;;;;;11.48;7.13;;;;;;;;;;6134098;23;20031;-87
2023/12/27 18:02:15;;;;;;;10.30;6.47;;;;;;;;;;6133799;23;20357;-88
2023/12/27 18:04:47;;;;;;;9.80;6.80;;;;;;;;;;6133958;23;20024;-88
2023/12/27 18:07:15;;;;;;;12.93;7.65;;;;;;;;;;6133201;23;20021;-88
2023/12/27 18:09:42;;;;;;;11.23;6.65;;;;;;;;;;6133966;23;20028;-87
2023/12/27 18:12:09;;;;;;;11.52;6.15;;;;;;;;;;6133583;23;20017;-87
2023/12/27 18:14:38;;;;;;;14.27;7.65;;;;;;;;;;6133452;23;20351;-86
2023/12/27 18:17:05;;;;;;;12.20;5.88;;;;;;;;;;6133146;23;20018;-86
2023/12/27 18:19:34;;;;;;;9.73;6.22;;;;;;;;;;6133936;23;20021;-85
2023/12/27 18:22:03;;;;;;;12.80;7.05;;;;;;;;;;6134608;23;20513;-86
2023/12/27 18:24:31;;;;;;;9.68;5.95;;;;;;;;;;6133961;23;20017;-86
2023/12/27 18:26:57;;;;;;;9.98;5.70;;;;;;;;;;6134083;23;20017;-85
2023/12/27 18:29:27;;;;;;;10.65;6.05;;;;;;;;;;6134710;23;20072;-85
2023/12/27 18:31:53;;;;;;;13.63;6.68;;;;;;;;;;6134517;23;20052;-85
2023/12/27 18:34:19;;;;;;;10.00;6.35;;;;;;;;;;6134208;23;20109;-85
2023/12/27 18:36:50;;;;;;;15.10;6.28;;;;;;;;;;6159379;23;20021;-85
2023/12/27 18:39:16;;;;;;;11.00;5.93;;;;;;;;;;6134957;23;20028;-85
2023/12/27 18:41:43;;;;;;;9.68;6.43;;;;;;;;;;6135424;23;20021;-85
2023/12/27 18:44:09;;;;;;;12.98;6.45;;;;;;;;;;6135921;23;20021;-85
2023/12/27 18:46:42;;;;;;;8.40;6.30;;;;;;;;;;6160259;23;20342;-85
2023/12/27 18:49:11;;;;;;;10.48;6.30;;;;;;;;;;6135581;23;20021;-85
2023/12/27 18:51:39;;;;;;;10.35;5.32;;;;;;;;;;6136665;23;20052;-85
2023/12/27 18:54:07;;;;;;;8.93;4.57;;;;;;;;;;6136178;23;20470;-85
2023/12/27 18:56:33;;;;;;;10.30;6.05;;;;;;;;;;6157921;23;20017;-85
2023/12/27 18:59:01;;;;;;;8.65;4.95;;;;;;;;;;6135498;23;20024;-85
2023/12/27 19:01:27;;;;;;;9.52;4.88;;;;;;;;;;6135595;23;20021;-85
2023/12/27 19:03:55;;;;;;;6.03;4.40;;;;;;;;;;6136816;23;20044;-85
2023/12/27 19:06:24;;;;;;;8.15;4.90;;;;;;;;;;6136416;23;20028;-85
2023/12/27 19:08:50;;;;;;;9.05;4.80;;;;;;;;;;6136621;23;20454;-85
2023/12/27 19:11:17;;;;;;;8.88;4.82;;;;;;;;;;6186558;23;20024;-86
2023/12/27 19:13:43;;;;;;;8.23;4.47;;;;;;;;;;6135259;23;20354;-85
2023/12/27 19:16:09;;;;;;;6.28;4.18;;;;;;;;;;6135853;23;20125;-85
2023/12/27 19:18:40;;;;;;;10.27;4.30;;;;;;;;;;6160906;23;20535;-85
2023/12/27 19:21:07;;;;;;;6.53;4.30;;;;;;;;;;6135091;23;20025;-86
2023/12/27 19:23:35;;;;;;;8.20;5.00;;;;;;;;;;6135303;23;20017;-86
2023/12/27 19:26:04;;;;;;;10.25;4.85;;;;;;;;;;6135950;23;20021;-85
2023/12/27 19:28:32;;;;;;;7.13;4.15;;;;;;;;;;6135337;23;20159;-86
2023/12/27 19:30:59;;;;;;;7.13;4.30;;;;;;;;;;6135309;23;20021;-86
2023/12/27 19:33:25;;;;;;;7.97;4.40;;;;;;;;;;6135276;23;20100;-86
2023/12/27 19:35:51;;;;;;;9.90;4.07;;;;;;;;;;6117962;23;20060;-86
2023/12/27 19:38:17;;;;;;;9.48;3.67;;;;;;;;;;6106660;23;20406;-85
2023/12/27 19:40:44;;;;;;;7.10;3.55;;;;;;;;;;6105885;23;20073;-86
2023/12/27 19:43:11;;;;;;;7.13;4.20;;;;;;;;;;6106219;23;20028;-86
2023/12/27 19:45:37;;;;;;;7.82;4.18;;;;;;;;;;6105729;23;20026;-86
2023/12/27 19:48:05;;;;;;;6.82;3.65;;;;;;;;;;6106153;23;20025;-86
2023/12/27 19:50:31;;;;;;;7.10;3.92;;;;;;;;;;6105867;23;20339;-86
2023/12/27 19:52:58;;;;;;;8.35;3.78;;;;;;;;;;6106389;23;20018;-86
2023/12/27 19:55:24;;;;;;;5.88;3.63;;;;;;;;;;6106422;23;20021;-86
2023/12/27 19:57:50;;;;;;;7.28;3.80;;;;;;;;;;6106721;23;20116;-86
2023/12/27 20:00:17;;;;;;;9.20;4.35;;;;;;;;;;6105930;23;20017;-86
2023/12/27 20:02:45;;;;;;;5.63;3.90;;;;;;;;;;6156705;23;20435;-86
2023/12/27 20:05:11;;;;;;;5.47;3.88;;;;;;;;;;6130819;23;20032;-86
2023/12/27 20:07:37;;;;;;;6.47;3.72;;;;;;;;;;6105734;23;20470;-86
2023/12/27 20:10:09;;;;;;;6.50;3.63;;;;;;;;;;6106075;23;20017;-86
2023/12/27 20:12:35;;;;;;;6.70;4.15;;;;;;;;;;6105782;23;20080;-86
2023/12/27 20:15:04;;;;;;;7.80;3.88;;;;;;;;;;6106222;23;20026;-86
2023/12/27 20:18:01;;;;;;;6.97;3.75;;;;;;;;;;6129863;23;20021;-86
2023/12/27 20:20:27;;;;;;;;;;;;;;;;;;6107479;23;20033;-86
2023/12/27 20:22:53;;;;;;;7.65;3.60;;;;;;;;;;6106031;23;19917;-86
2023/12/27 20:25:19;;;;;;;7.03;3.83;;;;;;;;;;6106400;23;20039;-86
2023/12/27 20:27:46;;;;;;;6.07;3.40;;;;;;;;;;6106251;23;20076;-86
2023/12/27 20:30:15;;;;;;;8.23;3.78;;;;;;;;;;6106111;23;20415;-86
2023/12/27 20:32:51;;;;;;;7.70;3.58;;;;;;;;;;6106014;23;20088;-86
2023/12/27 20:35:17;;;;;;;6.25;3.60;;;;;;;;;;6115188;23;20060;-86
2023/12/27 20:37:43;;;;;;;7.13;3.85;;;;;;;;;;6135119;23;20032;-86
2023/12/27 20:40:15;;;;;;;6.38;3.53;;;;;;;;;;6135114;23;20021;-86
2023/12/27 20:42:41;;;;;;;5.93;4.00;;;;;;;;;;6135161;23;20027;-86
2023/12/27 20:45:09;;;;;;;5.28;3.72;;;;;;;;;;6135255;23;20053;-86
2023/12/27 20:47:36;;;;;;;8.48;4.43;;;;;;;;;;6135034;23;20076;-86
2023/12/27 20:50:03;;;;;;;7.50;3.75;;;;;;;;;;6134814;23;20032;-86
2023/12/27 20:52:29;;;;;;;7.30;3.72;;;;;;;;;;6135255;23;20430;-86
2023/12/27 20:54:56;;;;;;;7.97;4.68;;;;;;;;;;6159043;23;20021;-87
2023/12/27 20:57:22;;;;;;;10.23;4.30;;;;;;;;;;6135213;23;20044;-88
2023/12/27 20:59:49;;;;;;;8.02;4.22;;;;;;;;;;6134492;23;20100;-86
2023/12/27 21:02:21;;;;;;;6.43;3.38;;;;;;;;;;6134817;23;20144;-86
2023/12/27 21:04:57;;;;;;;5.18;3.45;;;;;;;;;;6134229;23;20086;-86
2023/12/27 21:07:27;;;;;;;6.25;3.60;;;;;;;;;;6133893;23;20017;-86
2023/12/27 21:10:01;;;;;;;5.80;3.60;;;;;;;;;;6136054;23;20024;-86
2023/12/27 21:12:43;;;;;;;5.65;3.70;;;;;;;;;;6134394;23;20025;-86
2023/12/27 21:15:33;;;;;;;7.22;3.65;;;;;;;;;;6133697;23;20061;-86
2023/12/27 21:17:59;;;;;;;7.78;4.60;;;;;;;;;;6158242;23;20028;-86
2023/12/27 21:20:25;;;;;;;7.45;4.00;;;;;;;;;;6134136;23;20040;-87
2023/12/27 21:22:51;;;;;;;6.45;3.30;;;;;;;;;;6135235;23;20021;-86
2023/12/27 21:25:17;;;;;;;5.97;3.30;;;;;;;;;;6137318;23;20021;-86
2023/12/27 21:27:43;;;;;;;7.30;3.88;;;;;;;;;;6153693;23;20021;-86
2023/12/27 21:30:11;;;;;;;5.43;3.30;;;;;;;;;;6155378;23;20104;-86
2023/12/27 21:32:38;;;;;;;5.93;3.33;;;;;;;;;;6153589;23;20021;-86
2023/12/27 21:35:08;;;;;;;8.52;3.58;;;;;;;;;;6134685;23;21294;-86
2023/12/27 21:37:37;;;;;;;7.43;4.03;;;;;;;;;;6134201;23;20025;-86
2023/12/27 21:40:07;;;;;;;6.00;3.53;;;;;;;;;;6136515;23;20342;-86
2023/12/27 21:42:33;;;;;;;5.03;3.50;;;;;;;;;;6159975;23;20017;-86
2023/12/27 21:45:00;;;;;;;7.07;3.40;;;;;;;;;;6134670;23;20121;-86
2023/12/27 21:47:29;;;;;;;5.60;3.70;;;;;;;;;;6133766;23;20040;-86
2023/12/27 21:49:58;;;;;;;6.43;3.40;;;;;;;;;;6134575;23;20021;-86
2023/12/27 21:52:27;;;;;;;4.80;3.47;;;;;;;;;;6133394;23;20017;-86
2023/12/27 21:54:56;;;;;;;5.43;4.10;;;;;;;;;;6134419;23;20397;-86
2023/12/27 21:57:22;;;;;;;7.78;4.05;;;;;;;;;;6134134;23;20350;-87
2023/12/27 21:59:50;;;;;;;5.60;3.58;;;;;;;;;;6134573;23;20028;-87
2023/12/27 22:02:19;;;;;;;5.50;3.78;;;;;;;;;;6133992;23;20025;-87
2023/12/27 22:04:51;;;;;;;6.40;3.60;;;;;;;;;;6134480;23;20021;-87
2023/12/27 22:07:18;;;;;;;4.53;3.83;;;;;;;;;;6133533;23;20088;-86
2023/12/27 22:09:53;;;;;;;;;;;;;;;;;;6136537;23;20021;-87
2023/12/27 22:12:19;;;;;;;5.55;3.75;;;;;;;;;;6134339;23;19998;-87
2023/12/27 22:14:45;;;;;;;7.57;4.18;;;;;;;;;;6133923;23;20473;-87
2023/12/27 22:17:12;;;;;;;6.18;3.75;;;;;;;;;;6135731;23;20394;-86
2023/12/27 22:19:38;;;;;;;5.15;3.35;;;;;;;;;;6135560;23;20025;-87
2023/12/27 22:22:04;;;;;;;4.80;3.75;;;;;;;;;;6135892;23;20052;-87
2023/12/27 22:24:30;;;;;;;7.80;4.28;;;;;;;;;;6135993;23;20024;-87
2023/12/27 22:26:56;;;;;;;5.80;3.38;;;;;;;;;;6135820;23;20021;-87
2023/12/27 22:29:23;;;;;;;6.47;3.42;;;;;;;;;;6136007;23;20017;-87
2023/12/27 22:31:54;;;;;;;6.28;3.65;;;;;;;;;;6135905;23;20480;-87
2023/12/27 22:34:20;;;;;;;6.93;3.65;;;;;;;;;;6135374;23;20107;-87
2023/12/27 22:36:47;;;;;;;5.95;3.60;;;;;;;;;;6135482;23;20028;-87
2023/12/27 22:39:17;;;;;;;6.28;3.83;;;;;;;;;;6135738;23;20450;-87
2023/12/27 22:41:50;;;;;;;7.05;3.85;;;;;;;;;;6135525;23;20025;-87
2023/12/27 22:44:18;;;;;;;6.22;3.90;;;;;;;;;;6135699;23;20446;-87
2023/12/27 22:46:44;;;;;;;5.88;3.85;;;;;;;;;;6135826;23;20454;-87
2023/12/27 22:49:21;;;;;;;5.95;4.30;;;;;;;;;;6135873;23;20099;-87
2023/12/27 22:51:50;;;;;;;4.80;3.60;;;;;;;;;;6136152;23;20079;-87
2023/12/27 22:54:16;;;;;;;5.40;3.55;;;;;;;;;;6135552;23;20076;-86
2023/12/27 22:56:46;;;;;;;5.07;3.58;;;;;;;;;;6135781;23;20021;-86
2023/12/27 22:59:19;;;;;;;4.68;3.92;;;;;;;;;;6135671;23;20025;-87
2023/12/27 23:01:45;;;;;;;7.05;4.35;;;;;;;;;;6135277;23;20021;-87
2023/12/27 23:04:20;;;;;;;7.10;4.45;;;;;;;;;;6135749;23;20479;-87
2023/12/27 23:06:46;;;;;;;7.40;4.20;;;;;;;;;;6135115;23;20096;-87
2023/12/27 23:09:15;;;;;;;5.72;4.50;;;;;;;;;;6135155;23;20047;-87
2023/12/27 23:11:49;;;;;;;6.95;4.70;;;;;;;;;;6112887;23;20079;-87
2023/12/27 23:14:26;;;;;;;7.70;4.55;;;;;;;;;;6135055;23;20025;-87
2023/12/27 23:16:55;;;;;;;6.15;4.45;;;;;;;;;;6157465;23;20043;-87
2023/12/27 23:19:24;;;;;;;5.65;4.50;;;;;;;;;;6135486;23;20053;-87
2023/12/27 23:21:54;;;;;;;7.32;4.55;;;;;;;;;;6136228;23;20206;-87
2023/12/27 23:24:20;;;;;;;8.07;4.50;;;;;;;;;;6135458;23;20487;-87
2023/12/27 23:26:46;;;;;;;6.95;4.80;;;;;;;;;;6134865;23;20060;-87
2023/12/27 23:29:15;;;;;;;7.60;4.50;;;;;;;;;;6135574;23;20017;-87
2023/12/27 23:31:41;;;;;;;8.20;5.00;;;;;;;;;;6134929;23;20017;-87
2023/12/27 23:34:07;;;;;;;7.55;4.90;;;;;;;;;;6135420;23;20076;-87
2023/12/27 23:36:33;;;;;;;7.93;4.78;;;;;;;;;;6135276;23;20071;-87
2023/12/27 23:38:59;;;;;;;6.22;4.28;;;;;;;;;;6134671;23;20028;-87
2023/12/27 23:41:26;;;;;;;7.60;5.10;;;;;;;;;;6134825;23;20091;-87
2023/12/27 23:43:52;;;;;;;6.15;4.50;;;;;;;;;;6135132;23;20401;-87
2023/12/27 23:46:21;;;;;;;9.63;4.97;;;;;;;;;;6135217;23;20358;-87
2023/12/27 23:48:56;;;;;;;5.40;4.40;;;;;;;;;;6135429;23;20060;-87
2023/12/27 23:51:28;;;;;;;9.07;5.18;;;;;;;;;;6136018;23;20104;-87
2023/12/27 23:53:57;;;;;;;12.25;5.15;;;;;;;;;;6134531;23;20021;-87
2023/12/27 23:56:25;;;;;;;8.30;4.68;;;;;;;;;;6135135;23;20398;-87
2023/12/27 23:58:54;;;;;;;8.75;4.90;;;;;;;;;;6134408;23;20024;-87
